PWSweather.com
Personal Weather Stations
Station Observations

GerenaES 41860

Lat: 37.530965, Lon: -6.150384

Elevation: 120

Station Type: Vantage VUE

http://meteogerena.blogspot.com.es/

High Low Average
Temperature 73.6°F23.1°C 66.4°F19.1°C 69.7°F20.9°C
Dew Point 59.6°F15.3°C 57.7°F14.3°C 58.6°F14.8°C
Winds 2.0 mph 3.2 kmh Calm Calm 1.0 mph SW1.6 kmh SW
Wind Gusts 7.0 mph11.3 kmh 1.0 mph1.6 kmh 3.0 mph4.8 kmh
Humidity 74% 60% 68%
Pressure 30.05 in1017.6 mb 30.03 in1016.9 mb -
Precipitation 0.00 in0.0 mm - -
Hour Temp Dew Point Humidity Winds Wind Gusts Pressure Precip Precip Rate Daily Precip Total
06:31 AM 66.4°F19.1°C 57.8°F14.3°C 74% 2.0 mph SSW3.2 kmh SSW 4.0 mph6.4 kmh 30.03 in1016.9 mb 0.00 in0.0 mm 0.00 in0.0 mm 0.00 in0.0 mm
06:32 AM 66.6°F19.2°C 58.0°F14.4°C 74% 2.0 mph SSW3.2 kmh SSW 4.0 mph6.4 kmh 30.03 in1016.9 mb 0.00 in0.0 mm 0.00 in0.0 mm 0.00 in0.0 mm
06:33 AM 66.6°F19.2°C 58.0°F14.4°C 74% 2.0 mph SSW3.2 kmh SSW 4.0 mph6.4 kmh 30.03 in1016.9 mb 0.00 in0.0 mm 0.00 in0.0 mm 0.00 in0.0 mm
06:34 AM 66.6°F19.2°C 58.0°F14.4°C 74% 1.0 mph SSW1.6 kmh SSW 4.0 mph6.4 kmh 30.03 in1016.9 mb 0.00 in0.0 mm 0.00 in0.0 mm 0.00 in0.0 mm
06:35 AM 66.6°F19.2°C 58.0°F14.4°C 74% 1.0 mph SSW1.6 kmh SSW 2.0 mph3.2 kmh 30.03 in1016.9 mb 0.00 in0.0 mm 0.00 in0.0 mm 0.00 in0.0 mm
06:36 AM 66.6°F19.2°C 58.0°F14.4°C 74% 1.0 mph SSW1.6 kmh SSW 2.0 mph3.2 kmh 30.03 in1016.9 mb 0.00 in0.0 mm 0.00 in0.0 mm 0.00 in0.0 mm
06:37 AM 66.7°F19.3°C 58.2°F14.6°C 74% 1.0 mph SW1.6 kmh SW 2.0 mph3.2 kmh 30.03 in1016.9 mb 0.00 in0.0 mm 0.00 in0.0 mm 0.00 in0.0 mm
06:38 AM 66.7°F19.3°C 57.8°F14.3°C 73% 1.0 mph SW1.6 kmh SW 2.0 mph3.2 kmh 30.03 in1016.9 mb 0.00 in0.0 mm 0.00 in0.0 mm 0.00 in0.0 mm
06:39 AM 66.7°F19.3°C 57.8°F14.3°C 73% 1.0 mph SW1.6 kmh SW 2.0 mph3.2 kmh 30.03 in1016.9 mb 0.00 in0.0 mm 0.00 in0.0 mm 0.00 in0.0 mm
06:40 AM 66.7°F19.3°C 57.8°F14.3°C 73% 1.0 mph SW1.6 kmh SW 2.0 mph3.2 kmh 30.03 in1016.9 mb 0.00 in0.0 mm 0.00 in0.0 mm 0.00 in0.0 mm
06:41 AM 66.7°F19.3°C 57.8°F14.3°C 73% 1.0 mph SW1.6 kmh SW 2.0 mph3.2 kmh 30.03 in1016.9 mb 0.00 in0.0 mm 0.00 in0.0 mm 0.00 in0.0 mm
06:42 AM 66.9°F19.4°C 58.0°F14.4°C 73% 1.0 mph SW1.6 kmh SW 2.0 mph3.2 kmh 30.03 in1016.9 mb 0.00 in0.0 mm 0.00 in0.0 mm 0.00 in0.0 mm
06:43 AM 66.9°F19.4°C 58.0°F14.4°C 73% 1.0 mph SW1.6 kmh SW 3.0 mph4.8 kmh 30.03 in1016.9 mb 0.00 in0.0 mm 0.00 in0.0 mm 0.00 in0.0 mm
06:44 AM 66.9°F19.4°C 58.0°F14.4°C 73% 1.0 mph SW1.6 kmh SW 3.0 mph4.8 kmh 30.03 in1016.9 mb 0.00 in0.0 mm 0.00 in0.0 mm 0.00 in0.0 mm
06:45 AM 66.9°F19.4°C 58.0°F14.4°C 73% 1.0 mph SW1.6 kmh SW 4.0 mph6.4 kmh 30.04 in1017.3 mb 0.00 in0.0 mm 0.00 in0.0 mm 0.00 in0.0 mm
06:46 AM 66.9°F19.4°C 58.0°F14.4°C 73% 1.0 mph SW1.6 kmh SW 4.0 mph6.4 kmh 30.04 in1017.3 mb 0.00 in0.0 mm 0.00 in0.0 mm 0.00 in0.0 mm
06:47 AM 66.9°F19.4°C 58.0°F14.4°C 73% 1.0 mph SW1.6 kmh SW 4.0 mph6.4 kmh 30.04 in1017.3 mb 0.00 in0.0 mm 0.00 in0.0 mm 0.00 in0.0 mm
06:48 AM 67.1°F19.5°C 58.2°F14.6°C 73% 1.0 mph SW1.6 kmh SW 4.0 mph6.4 kmh 30.04 in1017.3 mb 0.00 in0.0 mm 0.00 in0.0 mm 0.00 in0.0 mm
06:49 AM 67.1°F19.5°C 58.2°F14.6°C 73% 1.0 mph SW1.6 kmh SW 4.0 mph6.4 kmh 30.04 in1017.3 mb 0.00 in0.0 mm 0.00 in0.0 mm 0.00 in0.0 mm
06:50 AM 67.3°F19.6°C 58.3°F14.6°C 73% 1.0 mph SW1.6 kmh SW 4.0 mph6.4 kmh 30.04 in1017.3 mb 0.00 in0.0 mm 0.00 in0.0 mm 0.00 in0.0 mm
06:51 AM 67.3°F19.6°C 58.3°F14.6°C 73% 1.0 mph SW1.6 kmh SW 4.0 mph6.4 kmh 30.04 in1017.3 mb 0.00 in0.0 mm 0.00 in0.0 mm 0.00 in0.0 mm
06:52 AM 67.3°F19.6°C 58.3°F14.6°C 73% 1.0 mph SW1.6 kmh SW 4.0 mph6.4 kmh 30.04 in1017.3 mb 0.00 in0.0 mm 0.00 in0.0 mm 0.00 in0.0 mm
06:53 AM 67.3°F19.6°C 58.3°F14.6°C 73% 1.0 mph SW1.6 kmh SW 4.0 mph6.4 kmh 30.04 in1017.3 mb 0.00 in0.0 mm 0.00 in0.0 mm 0.00 in0.0 mm
06:54 AM 67.3°F19.6°C 58.3°F14.6°C 73% 1.0 mph SW1.6 kmh SW 4.0 mph6.4 kmh 30.04 in1017.3 mb 0.00 in0.0 mm 0.00 in0.0 mm 0.00 in0.0 mm
06:55 AM 67.3°F19.6°C 58.3°F14.6°C 73% 1.0 mph SW1.6 kmh SW 2.0 mph3.2 kmh 30.04 in1017.3 mb 0.00 in0.0 mm 0.00 in0.0 mm 0.00 in0.0 mm
06:56 AM 67.3°F19.6°C 58.3°F14.6°C 73% 1.0 mph SW1.6 kmh SW 1.0 mph1.6 kmh 30.04 in1017.3 mb 0.00 in0.0 mm 0.00 in0.0 mm 0.00 in0.0 mm
06:57 AM 67.3°F19.6°C 57.9°F14.4°C 72% 1.0 mph SW1.6 kmh SW 1.0 mph1.6 kmh 30.04 in1017.3 mb 0.00 in0.0 mm 0.00 in0.0 mm 0.00 in0.0 mm
06:58 AM 67.5°F19.7°C 58.1°F14.5°C 72% 1.0 mph SW1.6 kmh SW 1.0 mph1.6 kmh 30.04 in1017.3 mb 0.00 in0.0 mm 0.00 in0.0 mm 0.00 in0.0 mm
06:59 AM 67.5°F19.7°C 58.1°F14.5°C 72% Calm Calm 1.0 mph1.6 kmh 30.04 in1017.3 mb 0.00 in0.0 mm 0.00 in0.0 mm 0.00 in0.0 mm
07:00 AM 67.5°F19.7°C 58.1°F14.5°C 72% Calm Calm 2.0 mph3.2 kmh 30.04 in1017.3 mb 0.00 in0.0 mm 0.00 in0.0 mm 0.00 in0.0 mm
07:01 AM 67.5°F19.7°C 58.1°F14.5°C 72% Calm Calm 2.0 mph3.2 kmh 30.04 in1017.3 mb 0.00 in0.0 mm 0.00 in0.0 mm 0.00 in0.0 mm
07:02 AM 67.5°F19.7°C 57.7°F14.3°C 71% Calm Calm 2.0 mph3.2 kmh 30.04 in1017.3 mb 0.00 in0.0 mm 0.00 in0.0 mm 0.00 in0.0 mm
07:03 AM 67.5°F19.7°C 57.7°F14.3°C 71% Calm Calm 2.0 mph3.2 kmh 30.04 in1017.3 mb 0.00 in0.0 mm 0.00 in0.0 mm 0.00 in0.0 mm
07:04 AM 67.5°F19.7°C 58.1°F14.5°C 72% Calm Calm 2.0 mph3.2 kmh 30.04 in1017.3 mb 0.00 in0.0 mm 0.00 in0.0 mm 0.00 in0.0 mm
07:05 AM 67.5°F19.7°C 58.1°F14.5°C 72% Calm Calm 2.0 mph3.2 kmh 30.04 in1017.3 mb 0.00 in0.0 mm 0.00 in0.0 mm 0.00 in0.0 mm
07:06 AM 67.5°F19.7°C 58.1°F14.5°C 72% Calm Calm 2.0 mph3.2 kmh 30.04 in1017.3 mb 0.00 in0.0 mm 0.00 in0.0 mm 0.00 in0.0 mm
07:07 AM 67.5°F19.7°C 58.1°F14.5°C 72% Calm Calm 2.0 mph3.2 kmh 30.04 in1017.3 mb 0.00 in0.0 mm 0.00 in0.0 mm 0.00 in0.0 mm
07:08 AM 67.5°F19.7°C 58.1°F14.5°C 72% 1.0 mph SW1.6 kmh SW 2.0 mph3.2 kmh 30.04 in1017.3 mb 0.00 in0.0 mm 0.00 in0.0 mm 0.00 in0.0 mm
07:09 AM 67.5°F19.7°C 58.1°F14.5°C 72% 1.0 mph SW1.6 kmh SW 2.0 mph3.2 kmh 30.04 in1017.3 mb 0.00 in0.0 mm 0.00 in0.0 mm 0.00 in0.0 mm
07:10 AM 67.5°F19.7°C 58.1°F14.5°C 72% 1.0 mph SW1.6 kmh SW 2.0 mph3.2 kmh 30.04 in1017.3 mb 0.00 in0.0 mm 0.00 in0.0 mm 0.00 in0.0 mm
07:11 AM 67.5°F19.7°C 58.5°F14.7°C 73% 1.0 mph SW1.6 kmh SW 2.0 mph3.2 kmh 30.04 in1017.3 mb 0.00 in0.0 mm 0.00 in0.0 mm 0.00 in0.0 mm
07:12 AM 67.6°F19.8°C 58.3°F14.6°C 72% 1.0 mph SW1.6 kmh SW 2.0 mph3.2 kmh 30.04 in1017.3 mb 0.00 in0.0 mm 0.00 in0.0 mm 0.00 in0.0 mm
07:13 AM 67.6°F19.8°C 58.3°F14.6°C 72% 1.0 mph SW1.6 kmh SW 2.0 mph3.2 kmh 30.04 in1017.3 mb 0.00 in0.0 mm 0.00 in0.0 mm 0.00 in0.0 mm
07:14 AM 67.8°F19.9°C 58.5°F14.7°C 72% 1.0 mph SW1.6 kmh SW 2.0 mph3.2 kmh 30.04 in1017.3 mb 0.00 in0.0 mm 0.00 in0.0 mm 0.00 in0.0 mm
07:15 AM 68.0°F20.0°C 58.6°F14.8°C 72% 1.0 mph SW1.6 kmh SW 2.0 mph3.2 kmh 30.04 in1017.3 mb 0.00 in0.0 mm 0.00 in0.0 mm 0.00 in0.0 mm
07:16 AM 68.0°F20.0°C 58.2°F14.6°C 71% 1.0 mph SW1.6 kmh SW 2.0 mph3.2 kmh 30.04 in1017.3 mb 0.00 in0.0 mm 0.00 in0.0 mm 0.00 in0.0 mm
07:17 AM 68.2°F20.1°C 58.4°F14.7°C 71% 1.0 mph SW1.6 kmh SW 3.0 mph4.8 kmh 30.04 in1017.3 mb 0.00 in0.0 mm 0.00 in0.0 mm 0.00 in0.0 mm
07:18 AM 68.2°F20.1°C 58.4°F14.7°C 71% Calm Calm 3.0 mph4.8 kmh 30.04 in1017.3 mb 0.00 in0.0 mm 0.00 in0.0 mm 0.00 in0.0 mm
07:19 AM 68.4°F20.2°C 58.6°F14.8°C 71% Calm Calm 3.0 mph4.8 kmh 30.04 in1017.3 mb 0.00 in0.0 mm 0.00 in0.0 mm 0.00 in0.0 mm
07:20 AM 68.4°F20.2°C 58.2°F14.6°C 70% Calm Calm 4.0 mph6.4 kmh 30.04 in1017.3 mb 0.00 in0.0 mm 0.00 in0.0 mm 0.00 in0.0 mm
07:21 AM 68.4°F20.2°C 57.8°F14.3°C 69% Calm Calm 4.0 mph6.4 kmh 30.04 in1017.3 mb 0.00 in0.0 mm 0.00 in0.0 mm 0.00 in0.0 mm
07:22 AM 68.4°F20.2°C 58.2°F14.6°C 70% Calm Calm 4.0 mph6.4 kmh 30.04 in1017.3 mb 0.00 in0.0 mm 0.00 in0.0 mm 0.00 in0.0 mm
07:23 AM 68.5°F20.3°C 58.4°F14.7°C 70% Calm Calm 4.0 mph6.4 kmh 30.04 in1017.3 mb 0.00 in0.0 mm 0.00 in0.0 mm 0.00 in0.0 mm
07:24 AM 68.5°F20.3°C 58.4°F14.7°C 70% 1.0 mph SW1.6 kmh SW 4.0 mph6.4 kmh 30.04 in1017.3 mb 0.00 in0.0 mm 0.00 in0.0 mm 0.00 in0.0 mm
07:25 AM 68.5°F20.3°C 58.0°F14.4°C 69% 1.0 mph SW1.6 kmh SW 4.0 mph6.4 kmh 30.04 in1017.3 mb 0.00 in0.0 mm 0.00 in0.0 mm 0.00 in0.0 mm
07:26 AM 68.7°F20.4°C 58.1°F14.5°C 69% 1.0 mph SW1.6 kmh SW 4.0 mph6.4 kmh 30.04 in1017.3 mb 0.00 in0.0 mm 0.00 in0.0 mm 0.00 in0.0 mm
07:27 AM 68.7°F20.4°C 58.1°F14.5°C 69% 1.0 mph SW1.6 kmh SW 4.0 mph6.4 kmh 30.04 in1017.3 mb 0.00 in0.0 mm 0.00 in0.0 mm 0.00 in0.0 mm
07:28 AM 68.9°F20.5°C 58.3°F14.6°C 69% 1.0 mph SW1.6 kmh SW 4.0 mph6.4 kmh 30.04 in1017.3 mb 0.00 in0.0 mm 0.00 in0.0 mm 0.00 in0.0 mm
07:29 AM 69.1°F20.6°C 58.5°F14.7°C 69% 1.0 mph SW1.6 kmh SW 4.0 mph6.4 kmh 30.04 in1017.3 mb 0.00 in0.0 mm 0.00 in0.0 mm 0.00 in0.0 mm
07:30 AM 69.1°F20.6°C 58.5°F14.7°C 69% 1.0 mph SW1.6 kmh SW 4.0 mph6.4 kmh 30.04 in1017.3 mb 0.00 in0.0 mm 0.00 in0.0 mm 0.00 in0.0 mm
07:31 AM 69.3°F20.7°C 58.7°F14.8°C 69% 1.0 mph SW1.6 kmh SW 3.0 mph4.8 kmh 30.04 in1017.3 mb 0.00 in0.0 mm 0.00 in0.0 mm 0.00 in0.0 mm
07:32 AM 69.3°F20.7°C 58.2°F14.6°C 68% 1.0 mph SW1.6 kmh SW 2.0 mph3.2 kmh 30.04 in1017.3 mb 0.00 in0.0 mm 0.00 in0.0 mm 0.00 in0.0 mm
07:33 AM 69.4°F20.8°C 58.4°F14.7°C 68% 1.0 mph SW1.6 kmh SW 2.0 mph3.2 kmh 30.04 in1017.3 mb 0.00 in0.0 mm 0.00 in0.0 mm 0.00 in0.0 mm
07:34 AM 69.4°F20.8°C 58.4°F14.7°C 68% 1.0 mph SW1.6 kmh SW 2.0 mph3.2 kmh 30.05 in1017.6 mb 0.00 in0.0 mm 0.00 in0.0 mm 0.00 in0.0 mm
07:35 AM 69.4°F20.8°C 58.4°F14.7°C 68% 1.0 mph SW1.6 kmh SW 2.0 mph3.2 kmh 30.04 in1017.3 mb 0.00 in0.0 mm 0.00 in0.0 mm 0.00 in0.0 mm
07:36 AM 69.6°F20.9°C 58.6°F14.8°C 68% 1.0 mph WSW1.6 kmh WSW 2.0 mph3.2 kmh 30.05 in1017.6 mb 0.00 in0.0 mm 0.00 in0.0 mm 0.00 in0.0 mm
07:37 AM 69.6°F20.9°C 58.6°F14.8°C 68% Calm Calm 2.0 mph3.2 kmh 30.04 in1017.3 mb 0.00 in0.0 mm 0.00 in0.0 mm 0.00 in0.0 mm
07:38 AM 69.8°F21.0°C 58.3°F14.6°C 67% Calm Calm 2.0 mph3.2 kmh 30.04 in1017.3 mb 0.00 in0.0 mm 0.00 in0.0 mm 0.00 in0.0 mm
07:39 AM 70.0°F21.1°C 58.5°F14.7°C 67% Calm Calm 2.0 mph3.2 kmh 30.04 in1017.3 mb 0.00 in0.0 mm 0.00 in0.0 mm 0.00 in0.0 mm
07:40 AM 70.0°F21.1°C 58.5°F14.7°C 67% Calm Calm 2.0 mph3.2 kmh 30.05 in1017.6 mb 0.00 in0.0 mm 0.00 in0.0 mm 0.00 in0.0 mm
07:41 AM 70.2°F21.2°C 58.7°F14.8°C 67% Calm Calm 2.0 mph3.2 kmh 30.05 in1017.6 mb 0.00 in0.0 mm 0.00 in0.0 mm 0.00 in0.0 mm
07:42 AM 70.2°F21.2°C 58.7°F14.8°C 67% Calm Calm 2.0 mph3.2 kmh 30.05 in1017.6 mb 0.00 in0.0 mm 0.00 in0.0 mm 0.00 in0.0 mm
07:43 AM 70.2°F21.2°C 58.7°F14.8°C 67% Calm Calm 2.0 mph3.2 kmh 30.05 in1017.6 mb 0.00 in0.0 mm 0.00 in0.0 mm 0.00 in0.0 mm
07:44 AM 70.3°F21.3°C 59.3°F15.2°C 68% Calm Calm 1.0 mph1.6 kmh 30.05 in1017.6 mb 0.00 in0.0 mm 0.00 in0.0 mm 0.00 in0.0 mm
07:45 AM 70.3°F21.3°C 59.3°F15.2°C 68% Calm Calm 1.0 mph1.6 kmh 30.04 in1017.3 mb 0.00 in0.0 mm 0.00 in0.0 mm 0.00 in0.0 mm
07:46 AM 70.5°F21.4°C 59.4°F15.2°C 68% Calm Calm 1.0 mph1.6 kmh 30.05 in1017.6 mb 0.00 in0.0 mm 0.00 in0.0 mm 0.00 in0.0 mm
07:47 AM 70.5°F21.4°C 59.4°F15.2°C 68% Calm Calm 1.0 mph1.6 kmh 30.05 in1017.6 mb 0.00 in0.0 mm 0.00 in0.0 mm 0.00 in0.0 mm
07:48 AM 70.5°F21.4°C 59.0°F15.0°C 67% Calm Calm 1.0 mph1.6 kmh 30.05 in1017.6 mb 0.00 in0.0 mm 0.00 in0.0 mm 0.00 in0.0 mm
07:49 AM 70.7°F21.5°C 59.6°F15.3°C 68% Calm Calm 2.0 mph3.2 kmh 30.05 in1017.6 mb 0.00 in0.0 mm 0.00 in0.0 mm 0.00 in0.0 mm
07:50 AM 70.7°F21.5°C 59.2°F15.1°C 67% Calm Calm 2.0 mph3.2 kmh 30.05 in1017.6 mb 0.00 in0.0 mm 0.00 in0.0 mm 0.00 in0.0 mm
07:51 AM 70.7°F21.5°C 59.6°F15.3°C 68% Calm Calm 2.0 mph3.2 kmh 30.05 in1017.6 mb 0.00 in0.0 mm 0.00 in0.0 mm 0.00 in0.0 mm
07:52 AM 70.7°F21.5°C 59.6°F15.3°C 68% Calm Calm 2.0 mph3.2 kmh 30.05 in1017.6 mb 0.00 in0.0 mm 0.00 in0.0 mm 0.00 in0.0 mm
07:53 AM 70.7°F21.5°C 59.6°F15.3°C 68% Calm Calm 2.0 mph3.2 kmh 30.05 in1017.6 mb 0.00 in0.0 mm 0.00 in0.0 mm 0.00 in0.0 mm
07:54 AM 70.7°F21.5°C 59.6°F15.3°C 68% Calm Calm 2.0 mph3.2 kmh 30.05 in1017.6 mb 0.00 in0.0 mm 0.00 in0.0 mm 0.00 in0.0 mm
07:55 AM 70.7°F21.5°C 59.6°F15.3°C 68% Calm Calm 2.0 mph3.2 kmh 30.05 in1017.6 mb 0.00 in0.0 mm 0.00 in0.0 mm 0.00 in0.0 mm
07:56 AM 70.9°F21.6°C 59.4°F15.2°C 67% Calm Calm 2.0 mph3.2 kmh 30.05 in1017.6 mb 0.00 in0.0 mm 0.00 in0.0 mm 0.00 in0.0 mm
07:57 AM 70.9°F21.6°C 59.4°F15.2°C 67% Calm Calm 2.0 mph3.2 kmh 30.05 in1017.6 mb 0.00 in0.0 mm 0.00 in0.0 mm 0.00 in0.0 mm
07:58 AM 70.9°F21.6°C 59.4°F15.2°C 67% Calm Calm 2.0 mph3.2 kmh 30.05 in1017.6 mb 0.00 in0.0 mm 0.00 in0.0 mm 0.00 in0.0 mm
07:59 AM 70.9°F21.6°C 59.4°F15.2°C 67% Calm Calm 2.0 mph3.2 kmh 30.05 in1017.6 mb 0.00 in0.0 mm 0.00 in0.0 mm 0.00 in0.0 mm
08:00 AM 70.9°F21.6°C 59.4°F15.2°C 67% Calm Calm 2.0 mph3.2 kmh 30.05 in1017.6 mb 0.00 in0.0 mm 0.00 in0.0 mm 0.00 in0.0 mm
08:01 AM 70.9°F21.6°C 59.0°F15.0°C 66% Calm Calm 2.0 mph3.2 kmh 30.05 in1017.6 mb 0.00 in0.0 mm 0.00 in0.0 mm 0.00 in0.0 mm
08:02 AM 71.1°F21.7°C 59.1°F15.1°C 66% Calm Calm 3.0 mph4.8 kmh 30.05 in1017.6 mb 0.00 in0.0 mm 0.00 in0.0 mm 0.00 in0.0 mm
08:03 AM 71.1°F21.7°C 58.7°F14.8°C 65% Calm Calm 3.0 mph4.8 kmh 30.05 in1017.6 mb 0.00 in0.0 mm 0.00 in0.0 mm 0.00 in0.0 mm
08:04 AM 71.2°F21.8°C 58.9°F14.9°C 65% Calm Calm 4.0 mph6.4 kmh 30.05 in1017.6 mb 0.00 in0.0 mm 0.00 in0.0 mm 0.00 in0.0 mm
08:05 AM 71.2°F21.8°C 58.4°F14.7°C 64% Calm Calm 4.0 mph6.4 kmh 30.05 in1017.6 mb 0.00 in0.0 mm 0.00 in0.0 mm 0.00 in0.0 mm
08:06 AM 71.2°F21.8°C 58.4°F14.7°C 64% Calm Calm 4.0 mph6.4 kmh 30.05 in1017.6 mb 0.00 in0.0 mm 0.00 in0.0 mm 0.00 in0.0 mm
08:07 AM 71.2°F21.8°C 58.0°F14.4°C 63% Calm Calm 4.0 mph6.4 kmh 30.05 in1017.6 mb 0.00 in0.0 mm 0.00 in0.0 mm 0.00 in0.0 mm
08:08 AM 71.2°F21.8°C 58.4°F14.7°C 64% Calm Calm 4.0 mph6.4 kmh 30.05 in1017.6 mb 0.00 in0.0 mm 0.00 in0.0 mm 0.00 in0.0 mm
08:09 AM 71.4°F21.9°C 58.2°F14.6°C 63% Calm Calm 4.0 mph6.4 kmh 30.05 in1017.6 mb 0.00 in0.0 mm 0.00 in0.0 mm 0.00 in0.0 mm
08:10 AM 71.4°F21.9°C 58.2°F14.6°C 63% 1.0 mph SW1.6 kmh SW 4.0 mph6.4 kmh 30.05 in1017.6 mb 0.00 in0.0 mm 0.00 in0.0 mm 0.00 in0.0 mm
08:11 AM 71.4°F21.9°C 58.6°F14.8°C 64% 1.0 mph SW1.6 kmh SW 4.0 mph6.4 kmh 30.05 in1017.6 mb 0.00 in0.0 mm 0.00 in0.0 mm 0.00 in0.0 mm
08:12 AM 71.6°F22.0°C 58.3°F14.6°C 63% 1.0 mph SW1.6 kmh SW 4.0 mph6.4 kmh 30.05 in1017.6 mb 0.00 in0.0 mm 0.00 in0.0 mm 0.00 in0.0 mm
08:13 AM 71.6°F22.0°C 58.3°F14.6°C 63% 1.0 mph SW1.6 kmh SW 4.0 mph6.4 kmh 30.05 in1017.6 mb 0.00 in0.0 mm 0.00 in0.0 mm 0.00 in0.0 mm
08:14 AM 71.6°F22.0°C 58.3°F14.6°C 63% 1.0 mph SW1.6 kmh SW 4.0 mph6.4 kmh 30.05 in1017.6 mb 0.00 in0.0 mm 0.00 in0.0 mm 0.00 in0.0 mm
08:15 AM 71.8°F22.1°C 58.5°F14.7°C 63% 2.0 mph SW3.2 kmh SW 4.0 mph6.4 kmh 30.05 in1017.6 mb 0.00 in0.0 mm 0.00 in0.0 mm 0.00 in0.0 mm
08:16 AM 71.8°F22.1°C 58.5°F14.7°C 63% 2.0 mph SW3.2 kmh SW 4.0 mph6.4 kmh 30.05 in1017.6 mb 0.00 in0.0 mm 0.00 in0.0 mm 0.00 in0.0 mm
08:17 AM 72.0°F22.2°C 58.7°F14.8°C 63% 2.0 mph SW3.2 kmh SW 4.0 mph6.4 kmh 30.05 in1017.6 mb 0.00 in0.0 mm 0.00 in0.0 mm 0.00 in0.0 mm
08:18 AM 72.0°F22.2°C 58.7°F14.8°C 63% 2.0 mph SW3.2 kmh SW 4.0 mph6.4 kmh 30.05 in1017.6 mb 0.00 in0.0 mm 0.00 in0.0 mm 0.00 in0.0 mm
08:19 AM 72.0°F22.2°C 58.7°F14.8°C 63% 2.0 mph SW3.2 kmh SW 4.0 mph6.4 kmh 30.05 in1017.6 mb 0.00 in0.0 mm 0.00 in0.0 mm 0.00 in0.0 mm
08:20 AM 72.1°F22.3°C 58.8°F14.9°C 63% 2.0 mph SW3.2 kmh SW 4.0 mph6.4 kmh 30.05 in1017.6 mb 0.00 in0.0 mm 0.00 in0.0 mm 0.00 in0.0 mm
08:21 AM 72.1°F22.3°C 58.8°F14.9°C 63% 2.0 mph SW3.2 kmh SW 4.0 mph6.4 kmh 30.05 in1017.6 mb 0.00 in0.0 mm 0.00 in0.0 mm 0.00 in0.0 mm
08:22 AM 72.1°F22.3°C 58.8°F14.9°C 63% 2.0 mph SW3.2 kmh SW 4.0 mph6.4 kmh 30.05 in1017.6 mb 0.00 in0.0 mm 0.00 in0.0 mm 0.00 in0.0 mm
08:23 AM 72.3°F22.4°C 59.0°F15.0°C 63% 2.0 mph SW3.2 kmh SW 3.0 mph4.8 kmh 30.05 in1017.6 mb 0.00 in0.0 mm 0.00 in0.0 mm 0.00 in0.0 mm
08:24 AM 72.5°F22.5°C 58.7°F14.8°C 62% 2.0 mph SW3.2 kmh SW 3.0 mph4.8 kmh 30.05 in1017.6 mb 0.00 in0.0 mm 0.00 in0.0 mm 0.00 in0.0 mm
08:25 AM 72.7°F22.6°C 58.9°F14.9°C 62% 2.0 mph SW3.2 kmh SW 3.0 mph4.8 kmh 30.05 in1017.6 mb 0.00 in0.0 mm 0.00 in0.0 mm 0.00 in0.0 mm
08:26 AM 72.7°F22.6°C 58.9°F14.9°C 62% 2.0 mph SW3.2 kmh SW 3.0 mph4.8 kmh 30.05 in1017.6 mb 0.00 in0.0 mm 0.00 in0.0 mm 0.00 in0.0 mm
08:27 AM 72.7°F22.6°C 58.9°F14.9°C 62% 2.0 mph SW3.2 kmh SW 3.0 mph4.8 kmh 30.05 in1017.6 mb 0.00 in0.0 mm 0.00 in0.0 mm 0.00 in0.0 mm
08:28 AM 72.9°F22.7°C 59.1°F15.1°C 62% 2.0 mph SW3.2 kmh SW 4.0 mph6.4 kmh 30.05 in1017.6 mb 0.00 in0.0 mm 0.00 in0.0 mm 0.00 in0.0 mm
08:29 AM 72.9°F22.7°C 59.1°F15.1°C 62% 1.0 mph SW1.6 kmh SW 4.0 mph6.4 kmh 30.05 in1017.6 mb 0.00 in0.0 mm 0.00 in0.0 mm 0.00 in0.0 mm
08:30 AM 72.9°F22.7°C 59.1°F15.1°C 62% 1.0 mph SW1.6 kmh SW 4.0 mph6.4 kmh 30.05 in1017.6 mb 0.00 in0.0 mm 0.00 in0.0 mm 0.00 in0.0 mm
08:31 AM 72.9°F22.7°C 59.1°F15.1°C 62% 1.0 mph SW1.6 kmh SW 4.0 mph6.4 kmh 30.05 in1017.6 mb 0.00 in0.0 mm 0.00 in0.0 mm 0.00 in0.0 mm
08:32 AM 72.9°F22.7°C 59.1°F15.1°C 62% 1.0 mph SW1.6 kmh SW 4.0 mph6.4 kmh 30.05 in1017.6 mb 0.00 in0.0 mm 0.00 in0.0 mm 0.00 in0.0 mm
08:33 AM 72.9°F22.7°C 59.1°F15.1°C 62% 1.0 mph SW1.6 kmh SW 4.0 mph6.4 kmh 30.05 in1017.6 mb 0.00 in0.0 mm 0.00 in0.0 mm 0.00 in0.0 mm
08:34 AM 72.9°F22.7°C 59.1°F15.1°C 62% 1.0 mph SW1.6 kmh SW 4.0 mph6.4 kmh 30.05 in1017.6 mb 0.00 in0.0 mm 0.00 in0.0 mm 0.00 in0.0 mm
08:35 AM 73.0°F22.8°C 59.2°F15.1°C 62% 1.0 mph SW1.6 kmh SW 4.0 mph6.4 kmh 30.05 in1017.6 mb 0.00 in0.0 mm 0.00 in0.0 mm 0.00 in0.0 mm
08:36 AM 73.0°F22.8°C 59.2°F15.1°C 62% 1.0 mph SW1.6 kmh SW 4.0 mph6.4 kmh 30.05 in1017.6 mb 0.00 in0.0 mm 0.00 in0.0 mm 0.00 in0.0 mm
08:37 AM 73.2°F22.9°C 59.4°F15.2°C 62% 1.0 mph SW1.6 kmh SW 4.0 mph6.4 kmh 30.05 in1017.6 mb 0.00 in0.0 mm 0.00 in0.0 mm 0.00 in0.0 mm
08:38 AM 73.2°F22.9°C 59.4°F15.2°C 62% 1.0 mph SW1.6 kmh SW 4.0 mph6.4 kmh 30.05 in1017.6 mb 0.00 in0.0 mm 0.00 in0.0 mm 0.00 in0.0 mm
08:39 AM 73.6°F23.1°C 59.3°F15.2°C 61% 1.0 mph SW1.6 kmh SW 4.0 mph6.4 kmh 30.05 in1017.6 mb 0.00 in0.0 mm 0.00 in0.0 mm 0.00 in0.0 mm
08:40 AM 73.6°F23.1°C 58.8°F14.9°C 60% 1.0 mph SW1.6 kmh SW 7.0 mph11.3 kmh 30.05 in1017.6 mb 0.00 in0.0 mm 0.00 in0.0 mm 0.00 in0.0 mm
08:41 AM 73.6°F23.1°C 58.8°F14.9°C 60% 1.0 mph SW1.6 kmh SW 7.0 mph11.3 kmh 30.05 in1017.6 mb 0.00 in0.0 mm 0.00 in0.0 mm 0.00 in0.0 mm
08:42 AM 73.6°F23.1°C 58.8°F14.9°C 60% 1.0 mph SW1.6 kmh SW 7.0 mph11.3 kmh 30.05 in1017.6 mb 0.00 in0.0 mm 0.00 in0.0 mm 0.00 in0.0 mm
08:43 AM 73.4°F23.0°C 58.7°F14.8°C 60% 1.0 mph SW1.6 kmh SW 7.0 mph11.3 kmh 30.05 in1017.6 mb 0.00 in0.0 mm 0.00 in0.0 mm 0.00 in0.0 mm